This is the latest recevied weather packets stored in our database for station/object AB0TJ. If no packets are shown the sender has not sent any weather packets the latest 10 day(s).
| Time | Temp. | Humidity | Pressure | Rain* | Wind** | Luminosity | Snow |
|---|---|---|---|---|---|---|---|
| 1777665379 | 18.33° C | 27% | 1017 hPa | 0 mm | - | 892 W/m² | - |
| 1777664264 | 18.33° C | 27% | 1017.2 hPa | 0 mm | - | 871 W/m² | - |
| 1777663177 | 18.33° C | 27% | 1017.6 hPa | 0 mm | - | 834 W/m² | - |
| 1777660532 | 17.78° C | 29% | 1018.3 hPa | 0 mm | - | 804 W/m² | - |
| 1777659972 | 17.78° C | 29% | 1018.3 hPa | 0 mm | - | 797 W/m² | - |
| 1777659489 | 17.78° C | 28% | 1018.6 hPa | 0 mm | - | 789 W/m² | - |
| 1777659009 | 17.22° C | 29% | 1018.4 hPa | 0 mm | - | 779 W/m² | - |
| 1777657913 | 16.67° C | 30% | 1018.9 hPa | 0 mm | - | 758 W/m² | - |
| 1777656767 | 17.22° C | 29% | 1019.1 hPa | 0 mm | - | 728 W/m² | - |
| 1777655213 | 16.67° C | 32% | 1019.1 hPa | 0 mm | - | 678 W/m² | - |
| 1777653504 | 16.11° C | 36% | 1019.2 hPa | 0 mm | - | 615 W/m² | - |
| 1777652932 | 16.11° C | 33% | 1019.6 hPa | 0 mm | - | 590 W/m² | - |
| 1777652332 | 16.11° C | 35% | 1019.3 hPa | 0 mm | - | 566 W/m² | - |
| 1777651251 | 15.56° C | 35% | 1019.6 hPa | 0 mm | - | 516 W/m² | - |
| 1777650759 | 15° C | 36% | 1019.2 hPa | 0 mm | - | 492 W/m² | - |
| 1777650209 | 14.44° C | 37% | 1019.5 hPa | 0 mm | - | 461 W/m² | - |
| 1777649704 | 14.44° C | 38% | 1019.6 hPa | 0 mm | - | 439 W/m² | - |
| 1777649207 | 13.33° C | 39% | 1019.4 hPa | 0 mm | - | 413 W/m² | - |
| 1777648609 | 12.22° C | 41% | 1019.6 hPa | 0 mm | - | 381 W/m² | - |
| 1777648084 | 11.67° C | 42% | 1019.3 hPa | 0 mm | - | 353 W/m² | - |
| 1777646354 | 9.44° C | 49% | 1019.5 hPa | 0 mm | - | 250 W/m² | - |
| 1777645872 | 8.89° C | 50% | 1019.5 hPa | 0 mm | - | 220 W/m² | - |
| 1777645392 | 8.33° C | 52% | 1019.3 hPa | 0 mm | - | 191 W/m² | - |
| 1777644817 | 7.78° C | 54% | 1019.3 hPa | 0 mm | - | 160 W/m² | - |
| 1777644293 | 7.22° C | 55% | 1019.5 hPa | 0 mm | - | 135 W/m² | - |
* Rain latest hour (hover to see other rain measurements)
** Current wind speed in m/s (hover to see current wind gust speed)